Archives de juin 14th, 2011

LES PAGES SONT À JOUR

mardi, juin 14th, 2011

Les pages sont accessibles par les onglets en haut du blog. Les plus actives sont  « SOMMAIRE », « NOTAM EN COURS » et « AÉROCLUBS ».

Le « SOMMAIRE » vous propose un classement par « SUJET », par « ORDRE ALPHABÉTIQUE » et par « DATE » de tous les articles parus sur le blog. Et en fin de classement vous avez un comptage par mois et par catégorie. Le sommaire est mis à jour mensuellement.

La page « NOTAM EN COURS » est assez récente. Lorsque l’on regarde les NOTAM parfois on ne se rend pas compte de la durée de celui-ci. Il y a des NOTAM dont la validité ne se compte pas forcément par les doigts d’une main. Il y a même un NOTAM PERMANENT actuellement.

Cette page énumère les NOTAM qui sont en cours depuis plus de 3 jours avec leur date de début et de fin de validité. Les NOTAM dont la date de validité est dépassée sont signalés par une couleur distinctive, facile à repérer.

Enfin, la dernière née est la page « AÉROCLUBS ». L’idée est d’avoir une liste « vraiment » à jour et pas dans le titre uniquement. A ce jour 310 aéro-clubs sont répertoriés. J’ai donc inventoriés ces aéro-clubs et vérifié une par une  toutes les adresses WEB. Tous les aéro-clubs ainsi listés ont une adresse WEB existante. Son classement est également intéressant, car je propose plusieurs tris : par RÉGION, par DÉPARTEMENT, par le NOM DU TERRAIN, par le CODE OACI DU TERRAIN et enfin par ORDRE ALPHABÉTIQUE DES AC.

Ce qui facilite drôlement les recherches.

Étiquettes : , , , , , , ,

11/29 FERMÉE À AMBOISE

mardi, juin 14th, 2011

LFFA-E2297/11
A) LFEF AMBOISE DIERRE
B) 2011 Jun 14 00:00 C) 2011 Jun 19 20:00
E) PISTE REVETUE 11/29 FERMEE

Étiquettes : , , , , , , , , ,

SERVICE RADAR NON ASSURÉ À LORIENT: PROLONGATION

mardi, juin 14th, 2011

TMA et CTR de Lorient

LFFA-B2743/11
A) LFRH LORIENT LANN BIHOUE
B) 2011 Jun 14 06:00 C) 2011 Jun 17 16:00
E) SERVICES RADAR NON ASSURES DANS LES TMA ET CTR LORIENT

Étiquettes : , , , , , , , , ,

04/22 FERMÉE À BEAUVAIS

mardi, juin 14th, 2011

LFFA-B2379/11
A) LFOB BEAUVAIS TILLE
B) 2011 Jun 13 21:59 C) 2011 Jun 17 15:00
E) PISTE REVETUE 04/22 FERMEE

Étiquettes : , , , , , , , , ,

09/27 FERMÉE À PÉRONNE

mardi, juin 14th, 2011

LFFA-E2280/11
A) LFAG PERONNE SAINT QUENTIN
B) 2011 Jun 14 12:00 C) 2011 Jun 15 15:00
D) 14 1200-1500, 15 0630-1500
E) PISTE 09/27 FERMEE

Étiquettes : , , , , , , , , ,

LE 042/11 (LE SALON DU BOURGET) ENTRE EN VIGUEUR LE 15 JUIN

mardi, juin 14th, 2011

Dans le cadre du 49ème Salon International de l’Aéronautique et de l’Espace, une intense activité aérienne est prévue sur l’Aérodrome de Paris-Le Bourget du mercredi 15 au lundi 27 juin 2011 inclus.

Le Sup Aip 042/11 est ici ou ici.

B) 2011 Jun 15 00:00 C) 2011 Jun 27 12:00
E) NOTAM TRIGGER – SUP AIP 042/11 EN VIGUEUR LE 15 JUIN 2011 : RESTRICTIONS UTILISATION AD CAUSE SALON DU BOURGET DISPONIBLE SUR WWW.SIA.AVIATION-CIVILE.GOUV.FR.

Ce NOTAM concerne les AD suivants.

LFFA-E1504/11
A) LFFE ENGHIEN MOISSELLES

LFFA-B1663/11
A) LFPN TOUSSUS LE NOBLE

LFFA-B1664/11
A) LFOB BEAUVAIS TILLE

LFFA-E1501/11
A) LFPE MEAUX ESBLY

LFFA-E1506/11
A) LFPL LOGNES EMERAINVILLE

LFFA-E1505/11
A) LFPH CHELLES LE PIN

LFFA-A1991/11
A) LFPO PARIS ORLY

LFFA-A3177/11A02
A) LFPB PARIS LE BOURGET

LFFA-A1990/11
A) LFPG PARIS CHARLES DE GAULLE

LFFA-E1500/11
A) LFPI PARIS ISSY LES MOULINEAUX

LFFA-E1503/11
A) LFPV VILLACOUBLAY VELIZY

LFFA-E1502/11
A) LFPC CREIL

Étiquettes : , , , , , , , , ,

NOTRE VOL À DEAUVILLE ANNULÉ : MAUVAISE MÉTÉO

mardi, juin 14th, 2011

Pourtant prévu depuis quelques temps, nous étions obligés ce matin d’annuler notre vol à Deauville pour cause, entre autres, de BKN1300 et  SCT025TCU à Deauville. Ça fait partie de notre métier de pilote privé de beau temps. Quand il fait pas beau on reste à la maison. Et on prend une autre date 🙂

Date de production (UTC) : 2011/06/14 6:19
Départ : LFPA
Destination : LFRG
Dégagement 1 : LFOP
Dégagement 2 : LFRK
Demi-largeur du couloir météo : 30
Nombre d’OPMET : 25
LFPC CREIL
METAR :
METAR LFPC 140600Z AUTO 34004KT 9999 FEW006 BKN010 BKN050 16/16 Q1019=
TAFL :
TAF LFPC 140500Z 1406/1506 VRB02KT 9999 FEW007 PROB40 TEMPO 1406/1410 BKN008 PROB30 TEMPO 1406/1410 4500 RA BECMG 1503/1506 BKN010=
LFPB PARIS-LE BOURGET
METAR :
METAR LFPB 140600Z AUTO 27002KT 9999 OVC032 17/16 Q1019=
TAFL :
TAF LFPB 140500Z 1406/1506 30005KT 7000 SCT005 BKN030 PROB40 TEMPO 1407/1412 3000 -RA BECMG 1413/1415 VRB02KT BECMG 1419/1421 20005KT PROB40 1502/1505 3000 BR=
LFPG PARIS-CHARLES DE GAULLE
METAR :
METAR LFPG 140600Z 27003KT 8000 FEW006 BKN030 17/16 Q1019 NOSIG=
TAFL :
TAF LFPG 140500Z 1406/1512 30005KT 7000 SCT005 BKN030 PROB40 TEMPO 1407/1412 3000 -RA BECMG 1413/1415 VRB02KT BECMG 1419/1421 20005KT PROB40 1502/1505 3000 BR TX21/1414Z TN15/1503Z=
LFPT PONTOISE-CORMEILLES-EN-VEXIN
METAR :
METAR LFPT 140600Z AUTO 00000KT 8000 FEW003 SCT026 16/16 Q1019=
LFOB BEAUVAIS-TILLE
METAR :
METAR LFOB 140600Z 30005KT 9999 SCT006 BKN008 16/15 Q1019 NOSIG=
TAFL :
TAF LFOB 140500Z 1406/1506 32005KT 9999 BKN030 TEMPO 1406/1415 3000 SHRA BKN007 OVC013 BECMG 1503/1506 BKN013=
LFPV VILLACOUBLAY-VELIZY
METAR :
METAR LFPV 140600Z AUTO 22003KT 9999 FEW002 SCT023 BKN032 17/16 Q1019=
TAFL :
TAF LFPV 140500Z 1406/1506 VRB03KT 9999 BKN025 BKN040 TEMPO 1406/1410 4000 -RA BKN020 BKN030=
LFPO PARIS-ORLY
METAR :
METAR LFPO 140600Z VRB02KT 9999 FEW010 SCT033 BKN050 16/16 Q1019 NOSIG=
TAFL :
TAF LFPO 140500Z 1406/1512 VRB02KT 9999 BKN040 TEMPO 1406/1409 -RA BR SCT025 BKN040 PROB30 TEMPO 1414/1418 8000 -SHRA BKN020 BECMG 1418/1421 16006KT SCT040 BECMG 1503/1505 22006KT TEMPO 1503/1508 6000 BKN020=
LFPN TOUSSUS-LE-NOBLE
METAR :
METAR LFPN 140600Z 20003KT 9999 SCT003 BKN023 BKN031 17/16 Q1019 NOSIG=
TAFC :
TAF LFPN 140500Z 1406/1415 VRB03KT 9999 SCT020 BKN030=
LFOE EVREUX-FAUVILLE
METAR :
METAR LFOE 140600Z AUTO VRB01KT 6000 -RA SCT002 BKN007 BKN016 16/15 Q1019=
TAFC :
TAF LFOE 140500Z 1406/1415 VRB02KT 6000 BKN015 OVC020 TEMPO 1406/1410 2000 BR RA BKN005 PROB30 TEMPO 1406/1410 0500 FG OVC005 BECMG 1410/1412 9999 BKN030=
LFOP ROUEN-VALLEE DE SEINE
METAR :
METAR LFOP 140600Z 36003KT 4000 BR OVC003 14/14 Q1019 NOSIG=
TAFL :
TAF LFOP 140500Z 1406/1506 VRB02KT 9999 BKN030 TEMPO 1406/1416 3000 SHRA BKN005 OVC013 BECMG 1503/1506 BKN010=
LFRG DEAUVILLE-SAINT-GATIEN
METAR :
METAR LFRG 140600Z AUTO 28003KT 240V320 9999 BKN005 BKN025 OVC030 14/13 Q1019=
TAFC :
TAF LFRG 140500Z 1406/1415 VRB02KT 9999 OVC006 TEMPO 1406/1408 OVC003 BECMG 1408/1410 BKN013 BECMG 1412/1415 SCT025TCU=
LFOH LE HAVRE-OCTEVILLE
METAR :
METAR LFOH 140600Z AUTO VRB03KT 9999 FEW010 SCT034 BKN041 14/11 Q1019=
TAFL :
TAF LFOH 140500Z 1406/1506 30005KT 9999 BKN030 TEMPO 1406/1415 3000 SHRA BKN010 BECMG 1422/1424 BKN013=
LFRK CAEN-CARPIQUET
METAR :
METAR LFRK 140600Z 33004KT 1200 R31/P2000 BR BKN002 14/14 Q1019 TEMPO 4000 BR=
TAFC :
TAF LFRK 140500Z 1406/1415 VRB02KT 9999 BKN004 OVC010 BECMG 1407/1409 BKN013 BECMG 1412/1414 SCT025TCU=

Étiquettes : , , , , , , , , , , , ,